Time;durP1;ratioP1;P1;durP2;ratioP2;P2;SDS_P1;SDS_P2;PMS_P1;PMS_P2;Temp;Humidity;BMP_temperature;BMP_pressure;BME280_temperature;BME280_humidity;BME280_pressure;Samples;Min_cycle;Max_cycle;Signal;HPM_P1;HPM_P2
2022/12/02 00:02:20;;;;;;;45.63;29.07;;;5.30;99.90;;;;;;5005188;28;20043;-78
2022/12/02 00:04:48;;;;;;;46.60;29.57;;;5.30;99.90;;;;;;5004191;28;20047;-78
2022/12/02 00:07:17;;;;;;;47.00;31.13;;;5.20;99.90;;;;;;4988062;28;20042;-78
2022/12/02 00:09:44;;;;;;;46.60;30.17;;;5.10;99.90;;;;;;5003864;28;20034;-78
2022/12/02 00:12:17;;;;;;;47.93;30.30;;;5.00;99.90;;;;;;5012842;28;20057;-78
2022/12/02 00:14:43;;;;;;;48.30;29.43;;;5.00;99.90;;;;;;4993397;28;20033;-78
2022/12/02 00:17:09;;;;;;;48.10;30.63;;;5.00;99.90;;;;;;5007065;28;20050;-78
2022/12/02 00:19:35;;;;;;;48.33;31.03;;;5.00;99.90;;;;;;5009442;28;20038;-78
2022/12/02 00:22:01;;;;;;;51.90;32.03;;;5.00;99.90;;;;;;4992879;28;20037;-78
2022/12/02 00:24:27;;;;;;;51.27;31.07;;;5.00;99.90;;;;;;4988431;28;20038;-78
2022/12/02 00:26:54;;;;;;;46.87;30.50;;;5.10;99.90;;;;;;4991080;28;20042;-78
2022/12/02 00:29:20;;;;;;;46.67;31.23;;;5.00;99.90;;;;;;4991030;28;20057;-78
2022/12/02 00:31:46;;;;;;;47.13;29.80;;;5.10;99.90;;;;;;5023161;28;20034;-78
2022/12/02 00:34:12;;;;;;;48.53;30.03;;;5.10;99.90;;;;;;4991000;28;20057;-79
2022/12/02 00:36:38;;;;;;;47.90;30.53;;;5.10;99.90;;;;;;4991647;28;20050;-78
2022/12/02 00:39:04;;;;;;;44.33;30.37;;;5.00;99.90;;;;;;5008638;28;20383;-78
2022/12/02 00:41:30;;;;;;;47.13;29.67;;;5.00;99.90;;;;;;5007711;28;20038;-78
2022/12/02 00:46:41;;;;;;;43.67;28.27;;;5.00;99.90;;;;;;4993970;28;20038;-78
2022/12/02 00:49:11;;;;;;;47.60;30.73;;;5.00;99.90;;;;;;4990044;28;20034;-78
2022/12/02 00:51:38;;;;;;;48.05;28.40;;;5.00;99.90;;;;;;5006877;28;20026;-78
2022/12/02 00:54:04;;;;;;;49.00;29.70;;;4.90;99.90;;;;;;5008635;28;20061;-78
2022/12/02 00:56:31;;;;;;;43.63;29.43;;;4.90;99.90;;;;;;4994586;28;20042;-78
2022/12/02 00:58:57;;;;;;;46.27;29.90;;;4.90;99.90;;;;;;4987529;28;20058;-78
2022/12/02 01:01:23;;;;;;;50.67;31.47;;;5.00;99.90;;;;;;4978642;28;20066;-78
2022/12/02 01:03:49;;;;;;;45.40;29.23;;;5.10;99.90;;;;;;4984999;28;20042;-78
2022/12/02 01:06:15;;;;;;;47.17;32.17;;;5.10;99.90;;;;;;5005215;28;20503;-78
2022/12/02 01:08:41;;;;;;;45.50;28.93;;;5.10;99.90;;;;;;4991880;28;20037;-78
2022/12/02 01:11:08;;;;;;;49.13;30.47;;;5.10;99.90;;;;;;4975805;28;20045;-77
2022/12/02 01:13:34;;;;;;;48.83;29.47;;;5.10;99.90;;;;;;5007854;28;20037;-78
2022/12/02 01:16:00;;;;;;;51.13;30.27;;;5.10;99.90;;;;;;5022151;28;20042;-78
2022/12/02 01:18:26;;;;;;;44.80;26.03;;;5.00;99.90;;;;;;4975689;28;20041;-78
2022/12/02 01:20:52;;;;;;;46.87;29.67;;;5.00;99.90;;;;;;4973006;28;20467;-78
2022/12/02 01:23:18;;;;;;;43.37;27.93;;;5.00;99.90;;;;;;5003385;28;20041;-78
2022/12/02 01:25:45;;;;;;;47.90;28.57;;;4.90;99.90;;;;;;4989604;28;20050;-78
2022/12/02 01:28:11;;;;;;;40.13;27.53;;;5.00;99.90;;;;;;5004996;28;20039;-78
2022/12/02 01:30:37;;;;;;;49.40;30.77;;;5.00;99.90;;;;;;5000425;28;20421;-78
2022/12/02 01:33:03;;;;;;;41.13;28.07;;;5.00;99.90;;;;;;4995980;28;20035;-78
2022/12/02 01:35:29;;;;;;;46.03;28.57;;;5.00;99.90;;;;;;4994905;28;20042;-78
2022/12/02 01:37:55;;;;;;;46.13;30.17;;;5.00;99.90;;;;;;4995748;28;20398;-78
2022/12/02 01:40:21;;;;;;;45.97;29.40;;;5.10;99.90;;;;;;5011975;28;20026;-78
2022/12/02 01:42:47;;;;;;;43.60;28.90;;;5.00;99.90;;;;;;5010886;28;20050;-78
2022/12/02 01:45:13;;;;;;;39.00;27.57;;;5.10;99.90;;;;;;5009626;28;20030;-78
2022/12/02 01:47:39;;;;;;;40.07;26.43;;;5.00;99.90;;;;;;4993061;28;20043;-78
2022/12/02 01:50:07;;;;;;;45.83;29.50;;;5.00;99.90;;;;;;4974028;28;20042;-78
2022/12/02 01:52:33;;;;;;;45.97;28.37;;;5.00;99.90;;;;;;4962310;28;20042;-79
2022/12/02 01:54:59;;;;;;;49.10;30.07;;;5.10;99.90;;;;;;4995613;28;20066;-78
2022/12/02 01:57:28;;;;;;;43.77;27.20;;;5.10;99.90;;;;;;5009423;28;20463;-78
2022/12/02 01:59:54;;;;;;;42.07;27.57;;;5.10;99.90;;;;;;5011333;28;20038;-78
2022/12/02 02:02:34;;;;;;;46.03;28.50;;;5.10;99.90;;;;;;5009823;28;20407;-78
2022/12/02 02:05:13;;;;;;;39.17;27.00;;;5.10;99.90;;;;;;4997555;28;20038;-78
2022/12/02 02:07:40;;;;;;;41.63;28.13;;;5.10;99.90;;;;;;5009429;28;20034;-78
2022/12/02 02:10:06;;;;;;;44.23;29.20;;;5.20;99.90;;;;;;4977186;28;20543;-78
2022/12/02 02:12:33;;;;;;;41.93;28.27;;;5.20;99.90;;;;;;5010299;28;20038;-77
2022/12/02 02:15:00;;;;;;;44.53;28.90;;;5.20;99.90;;;;;;5027075;28;20378;-78
2022/12/02 02:17:27;;;;;;;45.70;28.40;;;5.20;99.90;;;;;;5010477;28;20050;-79
2022/12/02 02:19:53;;;;;;;44.00;27.83;;;5.20;99.90;;;;;;5015614;28;20120;-77
2022/12/02 02:22:25;;;;;;;44.30;27.10;;;5.20;99.90;;;;;;5009285;28;20042;-78
2022/12/02 02:24:51;;;;;;;38.70;26.37;;;5.20;99.90;;;;;;4992349;28;20506;-78
2022/12/02 02:27:17;;;;;;;42.50;26.60;;;5.10;99.90;;;;;;4993335;28;20034;-78
2022/12/02 02:29:43;;;;;;;37.73;26.57;;;5.10;99.90;;;;;;5025777;28;20498;-78
2022/12/02 02:32:09;;;;;;;41.93;27.90;;;5.10;99.90;;;;;;5008848;28;20031;-78
2022/12/02 02:34:35;;;;;;;42.10;28.17;;;5.10;99.90;;;;;;5007470;28;20375;-78
2022/12/02 02:37:01;;;;;;;42.43;27.77;;;5.10;99.90;;;;;;4976105;28;20034;-78
2022/12/02 02:39:27;;;;;;;39.83;26.90;;;5.10;99.90;;;;;;4993931;28;20049;-78
2022/12/02 02:41:54;;;;;;;44.40;28.30;;;5.10;99.90;;;;;;4993259;28;20034;-78
2022/12/02 02:44:20;;;;;;;45.27;28.20;;;5.10;99.90;;;;;;4989732;28;20055;-78
2022/12/02 02:46:46;;;;;;;42.00;27.37;;;5.20;99.90;;;;;;5005619;28;20495;-78
2022/12/02 02:49:12;;;;;;;40.13;26.30;;;5.10;99.90;;;;;;4982616;28;20035;-77
2022/12/02 02:51:38;;;;;;;45.27;27.43;;;5.10;99.90;;;;;;4973103;28;20495;-78
2022/12/02 02:54:04;;;;;;;43.23;28.70;;;5.10;99.90;;;;;;4975456;28;20046;-78
2022/12/02 02:56:30;;;;;;;46.17;29.13;;;5.10;99.90;;;;;;4976776;28;20042;-78
2022/12/02 02:58:56;;;;;;;44.23;28.63;;;5.20;99.90;;;;;;4937213;28;20385;-78
2022/12/02 03:01:28;;;;;;;46.77;29.93;;;5.20;99.90;;;;;;4977186;28;20053;-78
2022/12/02 03:03:56;;;;;;;42.00;26.53;;;5.20;99.90;;;;;;5018827;28;20499;-78
2022/12/02 03:06:23;;;;;;;40.77;27.67;;;5.10;99.90;;;;;;4987530;28;20031;-78
2022/12/02 03:08:49;;;;;;;43.60;28.27;;;5.10;99.90;;;;;;4954674;28;20475;-78
2022/12/02 03:11:15;;;;;;;44.10;27.67;;;5.10;99.90;;;;;;4984701;28;20034;-78
2022/12/02 03:13:42;;;;;;;39.77;28.40;;;5.10;99.90;;;;;;4968829;28;20477;-79
2022/12/02 03:16:09;;;;;;;32.13;24.27;;;5.10;99.90;;;;;;4970419;28;20038;-78
2022/12/02 03:18:35;;;;;;;46.80;30.00;;;5.10;99.90;;;;;;5015652;28;20030;-78
2022/12/02 03:21:01;;;;;;;47.87;29.57;;;5.10;99.90;;;;;;5010720;28;20042;-78
2022/12/02 03:23:27;;;;;;;46.87;29.97;;;5.10;99.90;;;;;;4988370;28;20050;-78
2022/12/02 03:25:53;;;;;;;43.03;29.37;;;5.10;99.90;;;;;;4984757;28;20046;-79
2022/12/02 03:28:19;;;;;;;44.17;30.43;;;5.10;99.90;;;;;;4968414;28;20479;-78
2022/12/02 03:30:45;;;;;;;43.47;30.37;;;5.10;99.90;;;;;;4991167;28;20042;-79
2022/12/02 03:33:11;;;;;;;45.97;30.30;;;5.20;99.90;;;;;;5007925;28;20114;-78
2022/12/02 03:35:38;;;;;;;44.97;29.30;;;5.20;99.90;;;;;;4991976;28;20026;-79
2022/12/02 03:38:04;;;;;;;44.20;30.17;;;5.20;99.90;;;;;;5024507;28;20471;-78
2022/12/02 03:40:30;;;;;;;44.73;30.63;;;5.20;99.90;;;;;;5007254;28;20505;-79
2022/12/02 03:42:56;;;;;;;40.50;27.97;;;5.20;99.90;;;;;;5008231;28;20038;-78
2022/12/02 03:45:22;;;;;;;49.30;31.43;;;5.20;99.90;;;;;;4991878;28;20428;-78
2022/12/02 03:47:48;;;;;;;43.50;28.73;;;5.20;99.90;;;;;;4992794;28;20026;-78
2022/12/02 03:50:14;;;;;;;43.43;30.43;;;5.20;99.90;;;;;;5009474;28;20494;-78
2022/12/02 03:52:40;;;;;;;45.13;29.63;;;5.20;99.90;;;;;;5007782;28;20045;-78
2022/12/02 03:55:07;;;;;;;40.93;29.67;;;5.20;99.90;;;;;;5032065;28;20022;-78
2022/12/02 03:57:33;;;;;;;47.63;30.40;;;5.20;99.90;;;;;;4965131;28;20822;-78
2022/12/02 03:59:59;;;;;;;50.27;32.50;;;5.20;99.90;;;;;;4991489;28;20046;-78
2022/12/02 04:02:26;;;;;;;44.17;30.13;;;5.20;99.90;;;;;;4939900;28;20038;-78
2022/12/02 04:04:52;;;;;;;44.20;30.70;;;5.20;99.90;;;;;;4953650;28;20062;-78
2022/12/02 04:07:18;;;;;;;39.37;28.33;;;5.30;99.90;;;;;;4964079;28;20125;-78
2022/12/02 04:09:44;;;;;;;46.93;28.80;;;5.20;99.90;;;;;;4957601;28;20035;-77
2022/12/02 04:12:10;;;;;;;42.20;26.60;;;5.20;99.90;;;;;;4972891;28;20361;-79
2022/12/02 04:14:36;;;;;;;44.97;28.23;;;5.20;99.90;;;;;;4972674;28;20030;-78
2022/12/02 04:17:02;;;;;;;45.33;30.10;;;5.20;99.90;;;;;;5004709;28;20415;-78
2022/12/02 04:19:28;;;;;;;45.43;30.77;;;5.20;99.90;;;;;;4975565;28;20034;-79
2022/12/02 04:21:54;;;;;;;43.47;29.27;;;5.20;99.90;;;;;;5006341;28;20502;-78
2022/12/02 04:24:20;;;;;;;47.27;30.87;;;5.20;99.90;;;;;;5008740;28;20038;-79
2022/12/02 04:26:46;;;;;;;43.30;29.23;;;5.10;99.90;;;;;;4992600;28;20042;-78
2022/12/02 04:29:12;;;;;;;41.63;28.23;;;5.20;99.90;;;;;;4992952;28;20038;-78
2022/12/02 04:31:39;;;;;;;48.57;31.03;;;5.10;99.90;;;;;;4993648;28;20035;-78
2022/12/02 04:34:05;;;;;;;43.43;31.17;;;5.20;99.90;;;;;;4993771;28;20030;-79
2022/12/02 04:36:31;;;;;;;46.37;30.43;;;5.20;99.90;;;;;;4974661;28;20042;-79
2022/12/02 04:38:57;;;;;;;47.43;31.83;;;5.20;99.90;;;;;;5004387;28;20041;-78
2022/12/02 04:41:23;;;;;;;48.87;30.83;;;5.20;99.90;;;;;;4991993;28;20380;-78
2022/12/02 04:43:49;;;;;;;45.93;30.13;;;5.20;99.90;;;;;;4973811;28;20039;-79
2022/12/02 04:46:15;;;;;;;42.50;29.83;;;5.30;99.90;;;;;;4992180;28;20030;-78
2022/12/02 04:48:41;;;;;;;43.70;28.17;;;5.20;99.90;;;;;;4991737;28;20042;-78
2022/12/02 04:51:07;;;;;;;43.63;31.43;;;5.20;99.90;;;;;;4988826;28;20041;-79
2022/12/02 04:53:33;;;;;;;37.83;25.80;;;5.20;99.90;;;;;;4992395;28;20045;-79
2022/12/02 04:55:59;;;;;;;37.67;24.37;;;5.20;99.90;;;;;;4989976;28;20050;-78
2022/12/02 04:58:26;;;;;;;43.03;29.70;;;5.20;99.90;;;;;;5011804;28;20030;-79
2022/12/02 05:00:52;;;;;;;48.83;31.07;;;5.20;99.90;;;;;;5011120;28;20041;-78
2022/12/02 05:03:18;;;;;;;41.30;29.73;;;5.20;99.90;;;;;;5011186;28;20030;-78
2022/12/02 05:05:44;;;;;;;39.03;26.33;;;5.20;99.90;;;;;;4990699;28;20041;-78
2022/12/02 05:08:10;;;;;;;44.87;29.83;;;5.20;99.90;;;;;;5008378;28;20038;-79
2022/12/02 05:10:36;;;;;;;47.80;32.37;;;5.20;99.90;;;;;;5008239;28;20030;-79
2022/12/02 05:13:02;;;;;;;43.60;30.20;;;5.20;99.90;;;;;;4982132;28;20033;-79
2022/12/02 05:15:28;;;;;;;40.17;27.47;;;5.20;99.90;;;;;;4997819;28;20041;-78
2022/12/02 05:17:54;;;;;;;48.37;31.67;;;5.20;99.90;;;;;;4993053;28;20379;-82
2022/12/02 05:20:20;;;;;;;45.13;30.70;;;5.20;99.90;;;;;;4986598;28;20030;-78
2022/12/02 05:22:46;;;;;;;48.73;31.37;;;5.20;99.90;;;;;;5004514;28;20382;-77
2022/12/02 05:25:12;;;;;;;44.67;29.63;;;5.20;99.90;;;;;;4989192;28;20055;-79
2022/12/02 05:27:38;;;;;;;45.73;29.10;;;5.20;99.90;;;;;;4992334;28;20395;-78
2022/12/02 05:30:06;;;;;;;49.57;31.30;;;5.20;99.90;;;;;;4992784;28;20035;-78
2022/12/02 05:32:32;;;;;;;44.10;27.87;;;5.20;99.90;;;;;;4975727;28;20027;-79
2022/12/02 05:34:58;;;;;;;45.37;30.60;;;5.30;99.90;;;;;;4971191;28;20035;-78
2022/12/02 05:37:24;;;;;;;45.03;30.30;;;5.30;99.90;;;;;;4988369;28;20049;-78
2022/12/02 05:39:51;;;;;;;46.27;32.13;;;5.30;99.90;;;;;;4955803;28;20043;-78
2022/12/02 05:42:17;;;;;;;40.40;27.10;;;5.40;99.90;;;;;;4990546;28;20041;-78
2022/12/02 05:44:43;;;;;;;45.63;29.70;;;5.30;99.90;;;;;;4975500;28;20050;-78
2022/12/02 05:47:11;;;;;;;43.60;28.90;;;5.30;99.90;;;;;;4991127;28;20492;-78
2022/12/02 05:49:37;;;;;;;44.03;29.73;;;5.30;99.90;;;;;;4960698;28;20383;-78
2022/12/02 05:52:14;;;;;;;47.37;29.57;;;5.40;99.90;;;;;;4956601;28;20512;-79
2022/12/02 05:54:40;;;;;;;43.30;29.70;;;5.40;99.90;;;;;;4977654;28;20427;-77
2022/12/02 05:57:06;;;;;;;47.33;29.27;;;5.40;99.90;;;;;;5007732;28;20037;-78
2022/12/02 05:59:32;;;;;;;44.37;29.17;;;5.40;99.90;;;;;;5007934;28;20022;-79
2022/12/02 06:01:58;;;;;;;1443.40;90.03;;;5.50;99.90;;;;;;5007300;28;20037;-78
2022/12/02 06:04:31;;;;;;;48.77;32.30;;;5.60;99.90;;;;;;5001947;28;20049;-78
2022/12/02 06:07:01;;;;;;;48.07;28.87;;;5.70;99.90;;;;;;4991441;28;20043;-79
2022/12/02 06:09:29;;;;;;;46.27;29.03;;;5.70;99.90;;;;;;5007726;28;20034;-78
2022/12/02 06:11:55;;;;;;;45.93;29.13;;;5.70;99.90;;;;;;4991240;28;20035;-78
2022/12/02 06:14:23;;;;;;;43.33;28.63;;;5.70;99.90;;;;;;5008197;28;20031;-78
2022/12/02 06:16:58;;;;;;;47.63;30.00;;;5.60;99.90;;;;;;5003886;28;20054;-78
2022/12/02 06:19:48;;;;;;;46.93;29.40;;;5.50;99.90;;;;;;5028604;28;20506;-78
2022/12/02 06:22:19;;;;;;;42.07;27.23;;;5.50;99.90;;;;;;5021844;28;20483;-78
2022/12/02 06:24:45;;;;;;;44.92;28.83;;;5.40;99.90;;;;;;5000537;28;20062;-79
2022/12/02 06:27:12;;;;;;;47.73;28.23;;;5.40;99.90;;;;;;5007904;28;20093;-78
2022/12/02 06:29:39;;;;;;;45.20;28.23;;;5.40;99.90;;;;;;4991301;28;20031;-78
2022/12/02 06:32:09;;;;;;;45.47;28.90;;;5.40;99.90;;;;;;5008575;28;20403;-78
2022/12/02 06:34:39;;;;;;;43.53;28.00;;;5.50;99.90;;;;;;4995000;28;20062;-78
2022/12/02 06:37:10;;;;;;;39.87;27.27;;;5.50;99.90;;;;;;4991285;28;20283;-78
2022/12/02 06:39:36;;;;;;;40.78;28.48;;;5.50;99.90;;;;;;4991400;28;20046;-79
2022/12/02 06:42:04;;;;;;;44.83;28.37;;;5.50;99.90;;;;;;4991801;28;20384;-79
2022/12/02 06:47:33;;;;;;;41.67;27.60;;;5.50;99.90;;;;;;4988805;28;20053;-79
2022/12/02 06:50:05;;;;;;;41.77;28.10;;;5.50;99.90;;;;;;4976204;28;20415;-79
2022/12/02 06:52:40;;;;;;;34.53;22.77;;;5.50;99.90;;;;;;4976929;28;20062;-79
2022/12/02 06:55:29;;;;;;;38.60;27.40;;;5.50;99.90;;;;;;4984630;28;20509;-78
2022/12/02 06:57:56;;;;;;;37.33;25.30;;;5.50;99.90;;;;;;5013507;28;20048;-78
2022/12/02 07:00:22;;;;;;;37.63;28.17;;;5.40;99.90;;;;;;4986684;28;20030;-78
2022/12/02 07:02:48;;;;;;;42.87;28.20;;;5.40;99.90;;;;;;5004989;28;20037;-78
2022/12/02 07:05:20;;;;;;;41.00;28.23;;;5.50;99.90;;;;;;4977468;28;20054;-79
2022/12/02 07:07:46;;;;;;;39.97;28.67;;;5.60;99.90;;;;;;5010361;28;20026;-78
2022/12/02 07:10:33;;;;;;;38.93;27.33;;;5.60;99.90;;;;;;5009003;28;20498;-78
2022/12/02 07:13:12;;;;;;;42.50;27.70;;;5.60;99.90;;;;;;4994412;28;20042;-79
2022/12/02 07:15:40;;;;;;;45.17;28.93;;;5.60;99.90;;;;;;4974432;28;20046;-78
2022/12/02 07:18:13;;;;;;;41.20;26.10;;;5.60;99.90;;;;;;4992976;28;20045;-79
2022/12/02 07:20:39;;;;;;;42.40;27.80;;;5.50;99.90;;;;;;4994289;28;20475;-79
2022/12/02 07:23:15;;;;;;;41.67;28.90;;;5.40;99.90;;;;;;4987610;28;20034;-79
2022/12/02 07:25:46;;;;;;;47.03;28.90;;;5.30;99.90;;;;;;4992193;28;20054;-79
2022/12/02 07:28:34;;;;;;;45.80;28.23;;;5.20;99.90;;;;;;4978280;28;20033;-79
2022/12/02 07:31:23;;;;;;;40.87;27.50;;;5.20;99.90;;;;;;4976336;28;20027;-79
2022/12/02 07:33:50;;;;;;;45.10;29.23;;;5.20;99.90;;;;;;4960958;28;20388;-79
2022/12/02 07:36:16;;;;;;;38.67;27.10;;;5.20;99.90;;;;;;4982745;28;20503;-79
2022/12/02 07:38:42;;;;;;;42.97;30.07;;;5.30;99.90;;;;;;4992274;28;20049;-79
2022/12/02 07:41:08;;;;;;;41.10;27.63;;;5.20;99.90;;;;;;4961507;28;20045;-79
2022/12/02 07:43:35;;;;;;;40.60;28.10;;;5.20;99.90;;;;;;4960773;28;20144;-78
2022/12/02 07:46:01;;;;;;;46.43;27.77;;;5.20;99.90;;;;;;4993779;28;20038;-79
2022/12/02 07:48:27;;;;;;;44.13;29.43;;;5.20;99.90;;;;;;4933492;28;20031;-79
2022/12/02 07:50:53;;;;;;;40.00;26.83;;;5.20;99.90;;;;;;4953375;28;20366;-79
2022/12/02 07:53:19;;;;;;;49.70;29.93;;;5.10;99.90;;;;;;4973769;28;20039;-79
2022/12/02 07:55:45;;;;;;;43.43;27.33;;;5.10;99.90;;;;;;4989169;28;20034;-79
2022/12/02 07:58:11;;;;;;;40.00;25.37;;;5.10;99.90;;;;;;4938323;29;20405;-79
2022/12/02 08:00:37;;;;;;;38.77;27.00;;;4.90;99.90;;;;;;4974484;28;20038;-78
2022/12/02 08:03:04;;;;;;;52.17;29.77;;;4.80;99.90;;;;;;5004252;28;20594;-79
2022/12/02 08:05:30;;;;;;;47.20;29.37;;;4.80;99.90;;;;;;4990186;28;20054;-78
2022/12/02 08:07:56;;;;;;;46.23;28.20;;;4.90;99.90;;;;;;4992996;28;20498;-79
2022/12/02 08:10:22;;;;;;;40.53;25.90;;;4.80;99.90;;;;;;5004581;28;20379;-81
2022/12/02 08:12:48;;;;;;;40.30;26.03;;;4.70;99.90;;;;;;4987045;28;20038;-79
2022/12/02 08:15:14;;;;;;;38.80;24.67;;;4.70;99.90;;;;;;4994635;28;20035;-82
2022/12/02 08:17:41;;;;;;;35.53;22.93;;;4.60;99.90;;;;;;5009138;28;20022;-81
2022/12/02 08:20:09;;;;;;;31.93;21.23;;;4.60;99.90;;;;;;5017339;28;20030;-83
2022/12/02 08:22:35;;;;;;;47.13;29.00;;;4.60;99.90;;;;;;5008390;28;20061;-81
2022/12/02 08:25:01;;;;;;;47.60;31.10;;;4.60;99.90;;;;;;4979817;28;20038;-79
2022/12/02 08:27:27;;;;;;;60.50;35.57;;;4.60;99.90;;;;;;4991979;28;20038;-78
2022/12/02 08:29:53;;;;;;;48.27;30.23;;;4.60;99.90;;;;;;4974255;28;20034;-78
2022/12/02 08:32:19;;;;;;;46.93;31.17;;;4.60;99.90;;;;;;4989941;28;20514;-79
2022/12/02 08:34:45;;;;;;;44.70;27.77;;;4.70;99.90;;;;;;5016053;28;20034;-78
2022/12/02 08:37:12;;;;;;;44.87;29.27;;;4.60;99.90;;;;;;4972410;28;20038;-85
2022/12/02 08:39:38;;;;;;;42.53;28.17;;;5.20;99.90;;;;;;4969767;28;20049;-84
2022/12/02 08:42:04;;;;;;;43.00;29.73;;;5.30;99.90;;;;;;4960408;28;20034;-85
2022/12/02 08:44:30;;;;;;;48.33;29.97;;;5.30;99.90;;;;;;4959918;28;20061;-84
2022/12/02 08:46:56;;;;;;;56.83;33.33;;;5.60;99.90;;;;;;4978505;28;20035;-85
2022/12/02 08:49:22;;;;;;;52.27;34.07;;;5.70;99.90;;;;;;4973221;28;20039;-84
2022/12/02 08:51:49;;;;;;;48.47;31.47;;;5.70;99.90;;;;;;4973492;28;20396;-81
2022/12/02 08:54:15;;;;;;;48.07;31.10;;;5.80;99.90;;;;;;4973901;28;20065;-85
2022/12/02 08:56:42;;;;;;;42.67;26.33;;;5.90;99.90;;;;;;5008592;28;20045;-81
2022/12/02 08:59:08;;;;;;;42.43;29.30;;;5.70;99.90;;;;;;4977683;28;20042;-79
2022/12/02 09:01:34;;;;;;;44.13;29.53;;;5.30;99.90;;;;;;4989404;28;20046;-80
2022/12/02 09:04:00;;;;;;;47.70;31.03;;;5.20;99.90;;;;;;4991393;28;20061;-79
2022/12/02 09:06:26;;;;;;;47.57;29.83;;;5.20;99.90;;;;;;4985220;28;20030;-79
2022/12/02 09:08:52;;;;;;;40.30;26.37;;;5.20;99.90;;;;;;4973968;28;20026;-79
2022/12/02 09:11:18;;;;;;;45.33;28.57;;;5.20;99.90;;;;;;4983229;28;20065;-79
2022/12/02 09:13:44;;;;;;;47.20;28.73;;;5.20;99.90;;;;;;4986336;28;20042;-79
2022/12/02 09:16:10;;;;;;;45.77;30.63;;;5.00;99.90;;;;;;5007119;28;20045;-80
2022/12/02 09:18:37;;;;;;;54.63;32.87;;;5.00;99.90;;;;;;4985077;28;20026;-80
2022/12/02 09:21:03;;;;;;;45.97;30.67;;;5.10;99.90;;;;;;4999579;28;20034;-80
2022/12/02 09:23:29;;;;;;;56.57;32.83;;;5.20;99.90;;;;;;5003403;28;20034;-80
2022/12/02 09:25:55;;;;;;;48.80;29.33;;;5.20;99.90;;;;;;5007426;28;20491;-80
2022/12/02 09:28:22;;;;;;;55.37;32.00;;;5.20;99.90;;;;;;5004592;28;20494;-81
2022/12/02 09:30:49;;;;;;;47.97;31.90;;;5.20;99.90;;;;;;4989788;28;20384;-80
2022/12/02 09:33:15;;;;;;;47.57;30.13;;;5.20;99.90;;;;;;5007954;28;20034;-80
2022/12/02 09:35:41;;;;;;;48.37;31.03;;;5.20;99.90;;;;;;5003977;28;20034;-80
2022/12/02 09:38:07;;;;;;;56.00;32.70;;;5.20;99.90;;;;;;5025709;28;20057;-80
2022/12/02 09:40:33;;;;;;;51.40;32.17;;;5.30;99.90;;;;;;4994539;28;20045;-81
2022/12/02 09:43:00;;;;;;;48.10;32.07;;;5.40;99.90;;;;;;4990451;28;20035;-80
2022/12/02 09:45:26;;;;;;;56.57;32.47;;;5.40;99.90;;;;;;4991347;28;20042;-82
2022/12/02 09:47:53;;;;;;;53.00;33.40;;;5.40;99.90;;;;;;4970416;28;20061;-81
2022/12/02 09:50:19;;;;;;;47.30;31.47;;;5.50;99.90;;;;;;5022683;28;20045;-81
2022/12/02 09:52:45;;;;;;;49.80;31.17;;;5.50;99.90;;;;;;4978456;28;20046;-82
2022/12/02 09:55:13;;;;;;;50.27;32.27;;;5.40;99.90;;;;;;5005221;28;20022;-81
2022/12/02 09:57:42;;;;;;;53.60;32.23;;;5.50;99.90;;;;;;4979037;28;20030;-82
2022/12/02 10:00:22;;;;;;;46.77;32.17;;;5.50;99.90;;;;;;4994783;28;20038;-81
2022/12/02 10:02:52;;;;;;;50.73;33.40;;;5.50;99.90;;;;;;5002065;28;20044;-82
2022/12/02 10:05:19;;;;;;;48.57;31.57;;;5.50;99.90;;;;;;4978968;28;20502;-81
2022/12/02 10:07:46;;;;;;;47.20;31.43;;;5.60;99.90;;;;;;5010583;28;20030;-81
2022/12/02 10:10:14;;;;;;;49.47;31.40;;;5.60;99.90;;;;;;4974221;28;20043;-80
2022/12/02 10:12:40;;;;;;;48.90;32.87;;;5.70;99.90;;;;;;4998246;28;20026;-80
2022/12/02 10:15:10;;;;;;;51.70;31.67;;;5.60;99.90;;;;;;4999195;28;20034;-79
2022/12/02 10:17:36;;;;;;;47.63;31.57;;;5.70;99.90;;;;;;4995321;28;20030;-79
2022/12/02 10:20:02;;;;;;;48.03;29.53;;;5.70;99.90;;;;;;5018148;28;20041;-78
2022/12/02 10:22:28;;;;;;;48.87;32.80;;;5.60;99.90;;;;;;5011143;28;20023;-79
2022/12/02 10:24:55;;;;;;;47.87;31.30;;;5.60;99.90;;;;;;5001010;28;20077;-78
2022/12/02 10:27:29;;;;;;;50.93;32.97;;;5.60;99.90;;;;;;4994924;28;20034;-79
2022/12/02 10:30:17;;;;;;;48.40;30.73;;;5.70;99.90;;;;;;4978377;28;20038;-78
2022/12/02 10:32:57;;;;;;;50.87;31.07;;;5.80;99.90;;;;;;4993989;28;20042;-78
2022/12/02 10:35:23;;;;;;;46.63;30.10;;;5.80;99.90;;;;;;4994816;28;20033;-79
2022/12/02 10:37:49;;;;;;;46.73;31.03;;;5.80;99.90;;;;;;4978223;28;20034;-78
2022/12/02 10:40:17;;;;;;;45.77;30.70;;;5.80;99.90;;;;;;4965102;28;20039;-78
2022/12/02 10:42:43;;;;;;;49.40;30.80;;;5.80;99.90;;;;;;4994559;28;20464;-79
2022/12/02 10:45:10;;;;;;;43.43;27.40;;;5.90;99.90;;;;;;4992302;28;20065;-79
2022/12/02 10:47:36;;;;;;;44.67;29.97;;;5.80;99.90;;;;;;5010825;28;20290;-78
2022/12/02 10:50:02;;;;;;;43.40;30.03;;;5.80;99.90;;;;;;4993433;28;20474;-78
2022/12/02 10:52:34;;;;;;;47.37;30.17;;;5.80;99.90;;;;;;4950932;28;20043;-79
2022/12/02 10:55:01;;;;;;;48.47;30.23;;;5.90;99.90;;;;;;4992898;28;20026;-80
2022/12/02 10:57:28;;;;;;;43.20;29.10;;;6.00;99.90;;;;;;4997379;28;20356;-79
2022/12/02 10:59:55;;;;;;;46.93;30.50;;;5.90;99.90;;;;;;4992473;28;20035;-79
2022/12/02 11:02:44;;;;;;;51.53;31.70;;;6.00;99.90;;;;;;5003001;28;20038;-80
2022/12/02 11:05:14;;;;;;;48.37;31.57;;;6.00;99.90;;;;;;4985415;28;20046;-79
2022/12/02 11:07:40;;;;;;;54.57;29.03;;;6.10;99.90;;;;;;4993117;28;20506;-79
2022/12/02 11:10:14;;;;;;;43.57;29.83;;;6.20;99.90;;;;;;4978428;28;20053;-79
2022/12/02 11:12:49;;;;;;;47.37;30.00;;;6.10;99.90;;;;;;4962392;28;20054;-78
2022/12/02 11:15:31;;;;;;;44.20;28.90;;;6.10;99.90;;;;;;4993633;28;20039;-79
2022/12/02 11:17:57;;;;;;;46.80;29.07;;;6.10;99.90;;;;;;4987079;28;20042;-79
2022/12/02 11:20:39;;;;;;;46.97;30.37;;;6.10;99.90;;;;;;4971543;28;20042;-79
2022/12/02 11:23:23;;;;;;;41.40;26.87;;;6.00;99.90;;;;;;4993252;28;20030;-79
2022/12/02 11:25:49;;;;;;;41.47;26.00;;;6.00;99.90;;;;;;4960532;28;20047;-79
2022/12/02 11:28:28;;;;;;;37.17;25.80;;;6.10;99.90;;;;;;5009059;28;20045;-80
2022/12/02 11:31:09;;;;;;;46.50;30.50;;;6.00;99.90;;;;;;4992177;28;20038;-80
2022/12/02 11:33:47;;;;;;;43.00;29.07;;;6.00;99.90;;;;;;5009668;28;20038;-79
2022/12/02 11:36:16;;;;;;;23.07;17.53;;;6.00;99.90;;;;;;5014073;28;20038;-79
2022/12/02 11:38:48;;;;;;;51.47;30.97;;;6.10;99.90;;;;;;4997722;28;20026;-80
2022/12/02 11:41:14;;;;;;;45.57;28.70;;;6.00;99.90;;;;;;4991139;28;20031;-79
2022/12/02 11:43:46;;;;;;;34.20;21.27;;;6.10;99.90;;;;;;4955798;28;20046;-80
2022/12/02 11:46:14;;;;;;;49.43;29.63;;;6.10;99.90;;;;;;4974522;28;20091;-79
2022/12/02 11:49:41;;;;;;;45.87;30.33;;;6.10;99.90;;;;;;5004392;28;20023;-79
2022/12/02 11:52:12;;;;;;;49.87;30.53;;;6.20;99.90;;;;;;4894672;29;20052;-80
2022/12/02 11:54:42;;;;;;;46.47;31.23;;;6.40;99.90;;;;;;4894535;29;20055;-80
2022/12/02 11:57:28;;;;;;;50.57;30.83;;;6.40;99.90;;;;;;4879265;29;20405;-80
2022/12/02 11:59:55;;;;;;;46.97;31.40;;;6.50;99.90;;;;;;4910601;29;20036;-80
2022/12/02 12:02:22;;;;;;;48.00;31.87;;;6.50;99.90;;;;;;4893483;29;20041;-79
2022/12/02 12:05:06;;;;;;;46.00;26.40;;;6.50;99.90;;;;;;4911130;29;20045;-79
2022/12/02 12:07:46;;;;;;;49.53;31.37;;;6.40;99.90;;;;;;4909269;29;20064;-79
2022/12/02 12:10:41;;;;;;;49.03;30.53;;;6.50;99.90;;;;;;4895135;29;20093;-79
2022/12/02 12:13:14;;;;;;;51.50;30.70;;;6.50;99.90;;;;;;4863317;29;20056;-80
2022/12/02 12:15:47;;;;;;;47.50;27.57;;;6.50;99.90;;;;;;4888685;29;20438;-81
2022/12/02 12:18:44;;;;;;;48.40;31.77;;;6.60;99.90;;;;;;4908597;29;20461;-80
2022/12/02 12:21:12;;;;;;;45.70;29.83;;;6.70;99.90;;;;;;4872734;29;20656;-80
2022/12/02 12:23:43;;;;;;;51.37;30.17;;;6.70;99.90;;;;;;4875616;29;20048;-81
2022/12/02 12:26:29;;;;;;;45.00;30.48;;;6.80;99.90;;;;;;4876396;29;20480;-80
2022/12/02 12:28:55;;;;;;;48.53;29.37;;;6.80;99.90;;;;;;4960462;28;20039;-80
2022/12/02 12:31:21;;;;;;;51.60;32.63;;;6.80;99.90;;;;;;4959650;28;20038;-80
2022/12/02 12:33:47;;;;;;;46.27;30.10;;;6.90;99.90;;;;;;4991422;28;20522;-80
2022/12/02 12:36:13;;;;;;;54.20;32.00;;;6.90;99.90;;;;;;5008017;28;20475;-80
2022/12/02 12:38:39;;;;;;;49.03;32.47;;;6.80;99.90;;;;;;5008396;28;20030;-80
2022/12/02 12:41:05;;;;;;;47.87;31.20;;;6.80;99.90;;;;;;5007972;28;20045;-80
2022/12/02 12:43:31;;;;;;;51.00;31.73;;;6.80;99.90;;;;;;4991471;28;20035;-79
2022/12/02 12:45:57;;;;;;;50.13;32.20;;;6.90;99.90;;;;;;4971813;28;20057;-80
2022/12/02 12:48:24;;;;;;;49.47;31.17;;;6.90;99.90;;;;;;4974641;28;20034;-80